sensor_id;sensor_type;location;lat;lon;timestamp;P1;durP1;ratioP1;P2;durP2;ratioP2
52320;SDS011;38261;54.090;13.382;2023-05-16T00:00:19;5.83;;;5.23;;
52320;SDS011;38261;54.090;13.382;2023-05-16T00:01:41;11.27;;;5.10;;
52320;SDS011;38261;54.090;13.382;2023-05-16T00:03:03;5.83;;;5.30;;
52320;SDS011;38261;54.090;13.382;2023-05-16T00:04:26;6.93;;;5.73;;
52320;SDS011;38261;54.090;13.382;2023-05-16T00:05:49;6.60;;;5.30;;
52320;SDS011;38261;54.090;13.382;2023-05-16T00:07:11;7.03;;;5.33;;
52320;SDS011;38261;54.090;13.382;2023-05-16T00:08:33;10.63;;;5.70;;
52320;SDS011;38261;54.090;13.382;2023-05-16T00:09:56;6.40;;;5.10;;
52320;SDS011;38261;54.090;13.382;2023-05-16T00:11:18;6.63;;;4.73;;
52320;SDS011;38261;54.090;13.382;2023-05-16T00:12:40;7.30;;;5.60;;
52320;SDS011;38261;54.090;13.382;2023-05-16T00:14:02;6.00;;;5.37;;
52320;SDS011;38261;54.090;13.382;2023-05-16T00:15:24;6.03;;;5.43;;
52320;SDS011;38261;54.090;13.382;2023-05-16T00:16:46;10.30;;;6.07;;
52320;SDS011;38261;54.090;13.382;2023-05-16T00:18:08;7.47;;;5.27;;
52320;SDS011;38261;54.090;13.382;2023-05-16T00:19:35;6.20;;;5.60;;
52320;SDS011;38261;54.090;13.382;2023-05-16T00:20:57;6.80;;;5.97;;
52320;SDS011;38261;54.090;13.382;2023-05-16T00:22:20;6.50;;;5.70;;
52320;SDS011;38261;54.090;13.382;2023-05-16T00:23:42;8.40;;;5.10;;
52320;SDS011;38261;54.090;13.382;2023-05-16T00:25:04;9.00;;;5.57;;
52320;SDS011;38261;54.090;13.382;2023-05-16T00:26:29;8.90;;;6.20;;
52320;SDS011;38261;54.090;13.382;2023-05-16T00:27:51;7.10;;;5.70;;
52320;SDS011;38261;54.090;13.382;2023-05-16T00:29:13;6.13;;;5.53;;
52320;SDS011;38261;54.090;13.382;2023-05-16T00:30:35;9.03;;;5.60;;
52320;SDS011;38261;54.090;13.382;2023-05-16T00:31:57;9.30;;;5.63;;
52320;SDS011;38261;54.090;13.382;2023-05-16T00:33:20;6.80;;;5.70;;
52320;SDS011;38261;54.090;13.382;2023-05-16T00:34:42;7.57;;;6.20;;
52320;SDS011;38261;54.090;13.382;2023-05-16T00:36:04;7.00;;;5.93;;
52320;SDS011;38261;54.090;13.382;2023-05-16T00:37:26;8.03;;;5.80;;
52320;SDS011;38261;54.090;13.382;2023-05-16T00:38:49;6.77;;;5.67;;
52320;SDS011;38261;54.090;13.382;2023-05-16T00:40:11;6.40;;;5.60;;
52320;SDS011;38261;54.090;13.382;2023-05-16T00:41:33;6.93;;;5.87;;
52320;SDS011;38261;54.090;13.382;2023-05-16T00:42:55;7.97;;;5.70;;
52320;SDS011;38261;54.090;13.382;2023-05-16T00:44:17;8.27;;;5.90;;
52320;SDS011;38261;54.090;13.382;2023-05-16T00:45:39;7.47;;;6.27;;
52320;SDS011;38261;54.090;13.382;2023-05-16T00:47:01;6.33;;;5.27;;
52320;SDS011;38261;54.090;13.382;2023-05-16T00:48:24;6.93;;;5.70;;
52320;SDS011;38261;54.090;13.382;2023-05-16T00:49:47;6.93;;;5.77;;
52320;SDS011;38261;54.090;13.382;2023-05-16T00:51:09;9.10;;;5.53;;
52320;SDS011;38261;54.090;13.382;2023-05-16T00:52:31;6.90;;;5.90;;
52320;SDS011;38261;54.090;13.382;2023-05-16T00:53:54;6.60;;;5.57;;
52320;SDS011;38261;54.090;13.382;2023-05-16T00:55:17;7.57;;;5.80;;
52320;SDS011;38261;54.090;13.382;2023-05-16T00:56:40;10.40;;;6.00;;
52320;SDS011;38261;54.090;13.382;2023-05-16T00:58:02;7.17;;;6.10;;
52320;SDS011;38261;54.090;13.382;2023-05-16T00:59:26;10.20;;;5.97;;
52320;SDS011;38261;54.090;13.382;2023-05-16T01:00:48;6.93;;;6.30;;
52320;SDS011;38261;54.090;13.382;2023-05-16T01:02:11;10.57;;;6.03;;
52320;SDS011;38261;54.090;13.382;2023-05-16T01:03:34;8.87;;;5.80;;
52320;SDS011;38261;54.090;13.382;2023-05-16T01:04:57;13.23;;;7.57;;
52320;SDS011;38261;54.090;13.382;2023-05-16T01:06:20;9.60;;;5.50;;
52320;SDS011;38261;54.090;13.382;2023-05-16T01:07:43;6.90;;;5.83;;
52320;SDS011;38261;54.090;13.382;2023-05-16T01:09:05;7.67;;;6.00;;
52320;SDS011;38261;54.090;13.382;2023-05-16T01:10:38;6.23;;;5.00;;
52320;SDS011;38261;54.090;13.382;2023-05-16T01:15:57;6.77;;;5.20;;
52320;SDS011;38261;54.090;13.382;2023-05-16T01:17:29;7.80;;;5.80;;
52320;SDS011;38261;54.090;13.382;2023-05-16T01:20:54;8.60;;;5.80;;
52320;SDS011;38261;54.090;13.382;2023-05-16T01:25:55;8.60;;;6.93;;
52320;SDS011;38261;54.090;13.382;2023-05-16T01:27:18;8.67;;;5.70;;
52320;SDS011;38261;54.090;13.382;2023-05-16T01:28:43;7.20;;;6.40;;
52320;SDS011;38261;54.090;13.382;2023-05-16T01:30:14;6.83;;;5.83;;
52320;SDS011;38261;54.090;13.382;2023-05-16T01:31:38;8.70;;;6.83;;
52320;SDS011;38261;54.090;13.382;2023-05-16T01:33:00;7.20;;;6.50;;
52320;SDS011;38261;54.090;13.382;2023-05-16T01:34:22;8.47;;;6.53;;
52320;SDS011;38261;54.090;13.382;2023-05-16T01:35:52;6.80;;;5.83;;
52320;SDS011;38261;54.090;13.382;2023-05-16T01:37:33;8.40;;;6.80;;
52320;SDS011;38261;54.090;13.382;2023-05-16T01:40:44;8.43;;;6.80;;
52320;SDS011;38261;54.090;13.382;2023-05-16T01:42:13;7.80;;;6.33;;
52320;SDS011;38261;54.090;13.382;2023-05-16T01:43:38;9.20;;;7.63;;
52320;SDS011;38261;54.090;13.382;2023-05-16T01:45:09;8.13;;;7.27;;
52320;SDS011;38261;54.090;13.382;2023-05-16T01:46:47;9.97;;;7.23;;
52320;SDS011;38261;54.090;13.382;2023-05-16T01:48:16;9.13;;;8.00;;
52320;SDS011;38261;54.090;13.382;2023-05-16T01:49:45;11.00;;;7.70;;
52320;SDS011;38261;54.090;13.382;2023-05-16T01:51:27;10.07;;;8.00;;
52320;SDS011;38261;54.090;13.382;2023-05-16T01:54:30;11.70;;;7.97;;
52320;SDS011;38261;54.090;13.382;2023-05-16T01:55:55;10.10;;;8.87;;
52320;SDS011;38261;54.090;13.382;2023-05-16T01:57:20;10.90;;;8.67;;
52320;SDS011;38261;54.090;13.382;2023-05-16T01:58:46;10.90;;;8.57;;
52320;SDS011;38261;54.090;13.382;2023-05-16T02:00:10;13.13;;;8.73;;
52320;SDS011;38261;54.090;13.382;2023-05-16T02:01:33;11.43;;;9.15;;
52320;SDS011;38261;54.090;13.382;2023-05-16T02:02:56;13.77;;;9.60;;
52320;SDS011;38261;54.090;13.382;2023-05-16T02:04:18;13.93;;;9.73;;
52320;SDS011;38261;54.090;13.382;2023-05-16T02:05:40;12.20;;;10.03;;
52320;SDS011;38261;54.090;13.382;2023-05-16T02:07:02;11.60;;;9.13;;
52320;SDS011;38261;54.090;13.382;2023-05-16T02:08:25;12.80;;;9.87;;
52320;SDS011;38261;54.090;13.382;2023-05-16T02:09:48;13.47;;;10.70;;
52320;SDS011;38261;54.090;13.382;2023-05-16T02:11:10;16.93;;;11.00;;
52320;SDS011;38261;54.090;13.382;2023-05-16T02:12:32;14.60;;;11.27;;
52320;SDS011;38261;54.090;13.382;2023-05-16T02:13:54;16.17;;;11.70;;
52320;SDS011;38261;54.090;13.382;2023-05-16T02:15:17;16.33;;;11.60;;
52320;SDS011;38261;54.090;13.382;2023-05-16T02:16:39;15.10;;;11.60;;
52320;SDS011;38261;54.090;13.382;2023-05-16T02:18:01;13.20;;;11.10;;
52320;SDS011;38261;54.090;13.382;2023-05-16T02:19:23;18.63;;;12.40;;
52320;SDS011;38261;54.090;13.382;2023-05-16T02:20:45;14.10;;;10.97;;
52320;SDS011;38261;54.090;13.382;2023-05-16T02:22:08;15.80;;;12.73;;
52320;SDS011;38261;54.090;13.382;2023-05-16T02:23:30;19.40;;;12.83;;
52320;SDS011;38261;54.090;13.382;2023-05-16T02:24:52;19.17;;;14.27;;
52320;SDS011;38261;54.090;13.382;2023-05-16T02:26:14;23.13;;;15.00;;
52320;SDS011;38261;54.090;13.382;2023-05-16T02:27:36;21.80;;;15.73;;
52320;SDS011;38261;54.090;13.382;2023-05-16T02:28:59;21.90;;;16.37;;
52320;SDS011;38261;54.090;13.382;2023-05-16T02:30:21;24.83;;;17.50;;
52320;SDS011;38261;54.090;13.382;2023-05-16T02:31:43;27.30;;;20.57;;
52320;SDS011;38261;54.090;13.382;2023-05-16T02:33:05;33.60;;;22.67;;
52320;SDS011;38261;54.090;13.382;2023-05-16T02:34:27;37.73;;;26.77;;
52320;SDS011;38261;54.090;13.382;2023-05-16T02:35:49;47.97;;;28.90;;
52320;SDS011;38261;54.090;13.382;2023-05-16T02:37:11;46.80;;;29.43;;
52320;SDS011;38261;54.090;13.382;2023-05-16T02:38:34;44.50;;;29.87;;
52320;SDS011;38261;54.090;13.382;2023-05-16T02:39:56;48.03;;;31.90;;
52320;SDS011;38261;54.090;13.382;2023-05-16T02:41:18;52.70;;;35.23;;
52320;SDS011;38261;54.090;13.382;2023-05-16T02:42:42;54.30;;;35.97;;
52320;SDS011;38261;54.090;13.382;2023-05-16T02:44:04;56.53;;;37.27;;
52320;SDS011;38261;54.090;13.382;2023-05-16T02:45:26;63.13;;;37.73;;
52320;SDS011;38261;54.090;13.382;2023-05-16T02:46:49;61.33;;;36.40;;
52320;SDS011;38261;54.090;13.382;2023-05-16T02:48:11;61.17;;;38.03;;
52320;SDS011;38261;54.090;13.382;2023-05-16T02:49:33;60.87;;;38.47;;
52320;SDS011;38261;54.090;13.382;2023-05-16T02:50:56;67.90;;;42.47;;
52320;SDS011;38261;54.090;13.382;2023-05-16T02:52:18;67.33;;;41.70;;
52320;SDS011;38261;54.090;13.382;2023-05-16T02:53:40;72.30;;;44.07;;
52320;SDS011;38261;54.090;13.382;2023-05-16T02:55:02;71.87;;;44.73;;
52320;SDS011;38261;54.090;13.382;2023-05-16T02:56:42;67.73;;;41.80;;
52320;SDS011;38261;54.090;13.382;2023-05-16T02:58:05;70.93;;;44.07;;
52320;SDS011;38261;54.090;13.382;2023-05-16T02:59:27;74.53;;;45.77;;
52320;SDS011;38261;54.090;13.382;2023-05-16T03:00:49;82.30;;;47.57;;
52320;SDS011;38261;54.090;13.382;2023-05-16T03:02:11;79.20;;;46.57;;
52320;SDS011;38261;54.090;13.382;2023-05-16T03:03:34;78.50;;;45.70;;
52320;SDS011;38261;54.090;13.382;2023-05-16T03:04:57;75.20;;;45.77;;
52320;SDS011;38261;54.090;13.382;2023-05-16T03:06:19;74.20;;;45.10;;
52320;SDS011;38261;54.090;13.382;2023-05-16T03:07:42;79.83;;;47.63;;
52320;SDS011;38261;54.090;13.382;2023-05-16T03:09:04;93.97;;;50.50;;
52320;SDS011;38261;54.090;13.382;2023-05-16T03:10:26;88.37;;;49.70;;
52320;SDS011;38261;54.090;13.382;2023-05-16T03:11:48;79.57;;;48.17;;
52320;SDS011;38261;54.090;13.382;2023-05-16T03:13:10;84.03;;;47.70;;
52320;SDS011;38261;54.090;13.382;2023-05-16T03:14:32;88.57;;;50.60;;
52320;SDS011;38261;54.090;13.382;2023-05-16T03:15:54;80.80;;;47.60;;
52320;SDS011;38261;54.090;13.382;2023-05-16T03:17:17;96.90;;;50.20;;
52320;SDS011;38261;54.090;13.382;2023-05-16T03:18:39;81.23;;;48.13;;
52320;SDS011;38261;54.090;13.382;2023-05-16T03:20:02;97.00;;;51.93;;
52320;SDS011;38261;54.090;13.382;2023-05-16T03:21:25;89.03;;;50.00;;
52320;SDS011;38261;54.090;13.382;2023-05-16T03:22:47;89.47;;;50.10;;
52320;SDS011;38261;54.090;13.382;2023-05-16T03:24:10;92.33;;;49.60;;
52320;SDS011;38261;54.090;13.382;2023-05-16T03:25:32;90.03;;;48.33;;
52320;SDS011;38261;54.090;13.382;2023-05-16T03:26:58;79.97;;;47.07;;
52320;SDS011;38261;54.090;13.382;2023-05-16T03:28:20;87.53;;;49.30;;
52320;SDS011;38261;54.090;13.382;2023-05-16T03:29:42;82.70;;;47.00;;
52320;SDS011;38261;54.090;13.382;2023-05-16T03:31:04;82.33;;;44.07;;
52320;SDS011;38261;54.090;13.382;2023-05-16T03:32:27;90.50;;;46.10;;
52320;SDS011;38261;54.090;13.382;2023-05-16T03:33:49;78.00;;;43.63;;
52320;SDS011;38261;54.090;13.382;2023-05-16T03:35:11;74.80;;;42.70;;
52320;SDS011;38261;54.090;13.382;2023-05-16T03:36:33;73.53;;;41.80;;
52320;SDS011;38261;54.090;13.382;2023-05-16T03:37:56;78.30;;;43.23;;
52320;SDS011;38261;54.090;13.382;2023-05-16T03:39:18;76.80;;;41.13;;
52320;SDS011;38261;54.090;13.382;2023-05-16T03:40:40;79.77;;;42.37;;
52320;SDS011;38261;54.090;13.382;2023-05-16T03:42:02;74.87;;;39.83;;
52320;SDS011;38261;54.090;13.382;2023-05-16T03:43:25;71.07;;;40.87;;
52320;SDS011;38261;54.090;13.382;2023-05-16T03:44:47;78.00;;;40.40;;
52320;SDS011;38261;54.090;13.382;2023-05-16T03:46:09;78.97;;;40.60;;
52320;SDS011;38261;54.090;13.382;2023-05-16T03:47:31;72.53;;;41.67;;
52320;SDS011;38261;54.090;13.382;2023-05-16T03:48:54;68.67;;;41.17;;
52320;SDS011;38261;54.090;13.382;2023-05-16T03:50:16;72.13;;;38.17;;
52320;SDS011;38261;54.090;13.382;2023-05-16T03:51:38;65.57;;;38.00;;
52320;SDS011;38261;54.090;13.382;2023-05-16T03:53:00;70.53;;;37.13;;
52320;SDS011;38261;54.090;13.382;2023-05-16T03:54:22;63.40;;;35.33;;
52320;SDS011;38261;54.090;13.382;2023-05-16T03:55:44;62.83;;;38.10;;
52320;SDS011;38261;54.090;13.382;2023-05-16T03:57:09;64.00;;;35.37;;
52320;SDS011;38261;54.090;13.382;2023-05-16T03:58:31;68.50;;;35.33;;
52320;SDS011;38261;54.090;13.382;2023-05-16T03:59:53;54.63;;;32.03;;
52320;SDS011;38261;54.090;13.382;2023-05-16T04:01:15;61.03;;;35.37;;
52320;SDS011;38261;54.090;13.382;2023-05-16T04:02:37;54.30;;;30.77;;
52320;SDS011;38261;54.090;13.382;2023-05-16T04:04:04;52.30;;;30.57;;
52320;SDS011;38261;54.090;13.382;2023-05-16T04:05:26;49.47;;;30.17;;
52320;SDS011;38261;54.090;13.382;2023-05-16T04:06:50;47.20;;;26.57;;
52320;SDS011;38261;54.090;13.382;2023-05-16T04:08:12;55.83;;;28.50;;
52320;SDS011;38261;54.090;13.382;2023-05-16T04:09:34;45.70;;;26.90;;
52320;SDS011;38261;54.090;13.382;2023-05-16T04:10:56;44.90;;;26.97;;
52320;SDS011;38261;54.090;13.382;2023-05-16T04:12:18;42.40;;;25.47;;
52320;SDS011;38261;54.090;13.382;2023-05-16T04:13:40;45.93;;;24.60;;
52320;SDS011;38261;54.090;13.382;2023-05-16T04:15:03;47.57;;;25.67;;
52320;SDS011;38261;54.090;13.382;2023-05-16T04:16:26;37.20;;;24.30;;
52320;SDS011;38261;54.090;13.382;2023-05-16T04:17:48;45.27;;;25.07;;
52320;SDS011;38261;54.090;13.382;2023-05-16T04:19:10;40.07;;;24.27;;
52320;SDS011;38261;54.090;13.382;2023-05-16T04:20:33;34.30;;;22.10;;
52320;SDS011;38261;54.090;13.382;2023-05-16T04:21:55;36.93;;;23.43;;
52320;SDS011;38261;54.090;13.382;2023-05-16T04:23:17;42.33;;;21.47;;
52320;SDS011;38261;54.090;13.382;2023-05-16T04:24:39;36.27;;;22.30;;
52320;SDS011;38261;54.090;13.382;2023-05-16T04:26:02;36.13;;;22.83;;
52320;SDS011;38261;54.090;13.382;2023-05-16T04:27:25;38.60;;;22.37;;
52320;SDS011;38261;54.090;13.382;2023-05-16T04:28:51;37.73;;;22.97;;
52320;SDS011;38261;54.090;13.382;2023-05-16T04:30:13;40.70;;;23.13;;
52320;SDS011;38261;54.090;13.382;2023-05-16T04:31:35;45.70;;;21.33;;
52320;SDS011;38261;54.090;13.382;2023-05-16T04:32:57;41.37;;;22.73;;
52320;SDS011;38261;54.090;13.382;2023-05-16T04:34:20;35.53;;;22.53;;
52320;SDS011;38261;54.090;13.382;2023-05-16T04:35:43;40.37;;;23.80;;
52320;SDS011;38261;54.090;13.382;2023-05-16T04:37:06;40.83;;;21.60;;
52320;SDS011;38261;54.090;13.382;2023-05-16T04:38:29;33.73;;;20.50;;
52320;SDS011;38261;54.090;13.382;2023-05-16T04:39:51;39.47;;;22.33;;
52320;SDS011;38261;54.090;13.382;2023-05-16T04:41:15;39.33;;;22.97;;
52320;SDS011;38261;54.090;13.382;2023-05-16T04:42:37;39.03;;;21.03;;
52320;SDS011;38261;54.090;13.382;2023-05-16T04:44:02;37.50;;;21.40;;
52320;SDS011;38261;54.090;13.382;2023-05-16T04:45:24;39.77;;;21.90;;
52320;SDS011;38261;54.090;13.382;2023-05-16T04:46:47;48.13;;;21.93;;
52320;SDS011;38261;54.090;13.382;2023-05-16T04:48:09;39.97;;;20.70;;
52320;SDS011;38261;54.090;13.382;2023-05-16T04:49:32;33.30;;;20.83;;
52320;SDS011;38261;54.090;13.382;2023-05-16T04:50:54;38.80;;;22.57;;
52320;SDS011;38261;54.090;13.382;2023-05-16T04:52:17;38.20;;;23.07;;
52320;SDS011;38261;54.090;13.382;2023-05-16T04:53:39;38.50;;;22.33;;
52320;SDS011;38261;54.090;13.382;2023-05-16T04:55:01;41.83;;;22.00;;
52320;SDS011;38261;54.090;13.382;2023-05-16T04:56:23;38.00;;;22.53;;
52320;SDS011;38261;54.090;13.382;2023-05-16T04:57:47;55.80;;;23.50;;
52320;SDS011;38261;54.090;13.382;2023-05-16T04:59:09;34.17;;;20.67;;
52320;SDS011;38261;54.090;13.382;2023-05-16T05:00:31;39.63;;;21.37;;
52320;SDS011;38261;54.090;13.382;2023-05-16T05:01:53;39.20;;;21.27;;
52320;SDS011;38261;54.090;13.382;2023-05-16T05:03:15;35.83;;;19.87;;
52320;SDS011;38261;54.090;13.382;2023-05-16T05:04:38;43.40;;;19.00;;
52320;SDS011;38261;54.090;13.382;2023-05-16T05:06:01;32.40;;;21.23;;
52320;SDS011;38261;54.090;13.382;2023-05-16T05:07:23;37.37;;;20.13;;
52320;SDS011;38261;54.090;13.382;2023-05-16T05:08:48;35.20;;;19.97;;
52320;SDS011;38261;54.090;13.382;2023-05-16T05:10:10;29.87;;;19.50;;
52320;SDS011;38261;54.090;13.382;2023-05-16T05:11:33;34.30;;;19.10;;
52320;SDS011;38261;54.090;13.382;2023-05-16T05:12:55;40.43;;;20.90;;
52320;SDS011;38261;54.090;13.382;2023-05-16T05:14:17;34.90;;;18.60;;
52320;SDS011;38261;54.090;13.382;2023-05-16T05:15:39;28.20;;;17.10;;
52320;SDS011;38261;54.090;13.382;2023-05-16T05:17:01;29.63;;;17.60;;
52320;SDS011;38261;54.090;13.382;2023-05-16T05:18:24;31.93;;;18.23;;
52320;SDS011;38261;54.090;13.382;2023-05-16T05:19:47;35.07;;;17.67;;
52320;SDS011;38261;54.090;13.382;2023-05-16T05:21:09;24.33;;;15.47;;
52320;SDS011;38261;54.090;13.382;2023-05-16T05:22:31;26.30;;;15.90;;
52320;SDS011;38261;54.090;13.382;2023-05-16T05:23:54;31.03;;;16.10;;
52320;SDS011;38261;54.090;13.382;2023-05-16T05:25:16;24.80;;;14.30;;
52320;SDS011;38261;54.090;13.382;2023-05-16T05:26:38;25.30;;;15.23;;
52320;SDS011;38261;54.090;13.382;2023-05-16T05:28:01;35.60;;;15.87;;
52320;SDS011;38261;54.090;13.382;2023-05-16T05:29:24;23.73;;;14.90;;
52320;SDS011;38261;54.090;13.382;2023-05-16T05:30:46;24.97;;;14.87;;
52320;SDS011;38261;54.090;13.382;2023-05-16T05:32:08;24.20;;;14.90;;
52320;SDS011;38261;54.090;13.382;2023-05-16T05:33:31;23.97;;;14.70;;
52320;SDS011;38261;54.090;13.382;2023-05-16T05:34:53;26.00;;;14.70;;
52320;SDS011;38261;54.090;13.382;2023-05-16T05:36:16;22.80;;;15.43;;
52320;SDS011;38261;54.090;13.382;2023-05-16T05:37:38;25.97;;;12.77;;
52320;SDS011;38261;54.090;13.382;2023-05-16T05:39:00;24.20;;;13.17;;
52320;SDS011;38261;54.090;13.382;2023-05-16T05:40:22;19.50;;;13.27;;
52320;SDS011;38261;54.090;13.382;2023-05-16T05:41:44;23.30;;;13.67;;
52320;SDS011;38261;54.090;13.382;2023-05-16T05:43:07;17.80;;;12.20;;
52320;SDS011;38261;54.090;13.382;2023-05-16T05:44:29;23.73;;;12.97;;
52320;SDS011;38261;54.090;13.382;2023-05-16T05:45:51;17.27;;;12.10;;
52320;SDS011;38261;54.090;13.382;2023-05-16T05:47:14;21.13;;;11.80;;
52320;SDS011;38261;54.090;13.382;2023-05-16T05:48:36;14.53;;;10.60;;
52320;SDS011;38261;54.090;13.382;2023-05-16T05:49:58;16.93;;;10.77;;
52320;SDS011;38261;54.090;13.382;2023-05-16T05:51:21;18.93;;;11.20;;
52320;SDS011;38261;54.090;13.382;2023-05-16T05:52:43;19.33;;;11.20;;
52320;SDS011;38261;54.090;13.382;2023-05-16T05:54:05;25.93;;;10.97;;
52320;SDS011;38261;54.090;13.382;2023-05-16T05:55:28;17.73;;;10.60;;
52320;SDS011;38261;54.090;13.382;2023-05-16T05:56:50;20.40;;;11.60;;
52320;SDS011;38261;54.090;13.382;2023-05-16T05:58:12;16.13;;;10.23;;
52320;SDS011;38261;54.090;13.382;2023-05-16T05:59:34;20.73;;;10.83;;
52320;SDS011;38261;54.090;13.382;2023-05-16T06:00:56;19.00;;;10.70;;
52320;SDS011;38261;54.090;13.382;2023-05-16T06:02:19;16.60;;;11.00;;
52320;SDS011;38261;54.090;13.382;2023-05-16T06:03:41;16.30;;;10.47;;
52320;SDS011;38261;54.090;13.382;2023-05-16T06:05:04;22.50;;;10.57;;
52320;SDS011;38261;54.090;13.382;2023-05-16T06:06:26;16.60;;;10.30;;
52320;SDS011;38261;54.090;13.382;2023-05-16T06:07:49;23.17;;;11.30;;
52320;SDS011;38261;54.090;13.382;2023-05-16T06:09:11;17.87;;;10.60;;
52320;SDS011;38261;54.090;13.382;2023-05-16T06:10:36;20.07;;;10.83;;
52320;SDS011;38261;54.090;13.382;2023-05-16T06:11:58;22.67;;;9.80;;
52320;SDS011;38261;54.090;13.382;2023-05-16T06:13:21;17.83;;;10.47;;
52320;SDS011;38261;54.090;13.382;2023-05-16T06:14:43;18.83;;;10.47;;
52320;SDS011;38261;54.090;13.382;2023-05-16T06:16:05;26.03;;;10.20;;
52320;SDS011;38261;54.090;13.382;2023-05-16T06:17:30;15.43;;;8.47;;
52320;SDS011;38261;54.090;13.382;2023-05-16T06:18:52;22.80;;;10.13;;
52320;SDS011;38261;54.090;13.382;2023-05-16T06:20:14;19.03;;;9.10;;
52320;SDS011;38261;54.090;13.382;2023-05-16T06:21:36;20.70;;;9.87;;
52320;SDS011;38261;54.090;13.382;2023-05-16T06:22:59;15.83;;;8.27;;
52320;SDS011;38261;54.090;13.382;2023-05-16T06:24:21;18.60;;;8.70;;
52320;SDS011;38261;54.090;13.382;2023-05-16T06:25:43;22.43;;;8.83;;
52320;SDS011;38261;54.090;13.382;2023-05-16T06:27:06;24.93;;;8.90;;
52320;SDS011;38261;54.090;13.382;2023-05-16T06:28:28;19.80;;;9.13;;
52320;SDS011;38261;54.090;13.382;2023-05-16T06:29:50;21.33;;;8.77;;
52320;SDS011;38261;54.090;13.382;2023-05-16T06:31:12;16.70;;;8.77;;
52320;SDS011;38261;54.090;13.382;2023-05-16T06:32:34;23.33;;;9.53;;
52320;SDS011;38261;54.090;13.382;2023-05-16T06:33:56;26.60;;;8.47;;
52320;SDS011;38261;54.090;13.382;2023-05-16T06:35:19;17.87;;;8.60;;
52320;SDS011;38261;54.090;13.382;2023-05-16T06:36:41;18.20;;;8.30;;
52320;SDS011;38261;54.090;13.382;2023-05-16T06:38:04;25.70;;;7.67;;
52320;SDS011;38261;54.090;13.382;2023-05-16T06:39:26;21.30;;;7.47;;
52320;SDS011;38261;54.090;13.382;2023-05-16T06:40:49;24.90;;;8.03;;
52320;SDS011;38261;54.090;13.382;2023-05-16T06:42:11;16.00;;;6.30;;
52320;SDS011;38261;54.090;13.382;2023-05-16T06:43:33;20.00;;;6.90;;
52320;SDS011;38261;54.090;13.382;2023-05-16T06:44:56;23.20;;;7.50;;
52320;SDS011;38261;54.090;13.382;2023-05-16T06:46:18;19.83;;;6.30;;
52320;SDS011;38261;54.090;13.382;2023-05-16T06:47:40;19.27;;;6.43;;
52320;SDS011;38261;54.090;13.382;2023-05-16T06:49:02;20.63;;;6.30;;
52320;SDS011;38261;54.090;13.382;2023-05-16T06:50:25;16.83;;;5.57;;
52320;SDS011;38261;54.090;13.382;2023-05-16T06:51:47;15.80;;;6.60;;
52320;SDS011;38261;54.090;13.382;2023-05-16T06:53:09;16.67;;;5.37;;
52320;SDS011;38261;54.090;13.382;2023-05-16T06:54:32;18.17;;;6.03;;
52320;SDS011;38261;54.090;13.382;2023-05-16T06:55:55;15.90;;;5.37;;
52320;SDS011;38261;54.090;13.382;2023-05-16T06:57:17;14.30;;;4.67;;
52320;SDS011;38261;54.090;13.382;2023-05-16T06:58:40;12.40;;;4.50;;
52320;SDS011;38261;54.090;13.382;2023-05-16T07:00:02;13.23;;;4.40;;
52320;SDS011;38261;54.090;13.382;2023-05-16T07:01:25;15.03;;;4.40;;
52320;SDS011;38261;54.090;13.382;2023-05-16T07:02:47;16.30;;;4.90;;
52320;SDS011;38261;54.090;13.382;2023-05-16T07:04:09;13.13;;;4.33;;
52320;SDS011;38261;54.090;13.382;2023-05-16T07:05:32;25.83;;;5.50;;
52320;SDS011;38261;54.090;13.382;2023-05-16T07:06:54;27.83;;;4.63;;
52320;SDS011;38261;54.090;13.382;2023-05-16T07:08:16;22.73;;;4.27;;
52320;SDS011;38261;54.090;13.382;2023-05-16T07:09:38;15.37;;;4.20;;
52320;SDS011;38261;54.090;13.382;2023-05-16T07:11:01;16.40;;;4.50;;
52320;SDS011;38261;54.090;13.382;2023-05-16T07:12:23;12.23;;;3.80;;
52320;SDS011;38261;54.090;13.382;2023-05-16T07:13:45;16.73;;;4.53;;
52320;SDS011;38261;54.090;13.382;2023-05-16T07:15:08;17.07;;;4.17;;
52320;SDS011;38261;54.090;13.382;2023-05-16T07:16:30;14.17;;;4.10;;
52320;SDS011;38261;54.090;13.382;2023-05-16T07:17:53;17.10;;;4.80;;
52320;SDS011;38261;54.090;13.382;2023-05-16T07:19:15;14.97;;;4.03;;
52320;SDS011;38261;54.090;13.382;2023-05-16T07:20:37;19.63;;;3.67;;
52320;SDS011;38261;54.090;13.382;2023-05-16T07:22:00;13.67;;;4.67;;
52320;SDS011;38261;54.090;13.382;2023-05-16T07:23:22;17.10;;;4.23;;
52320;SDS011;38261;54.090;13.382;2023-05-16T07:24:44;16.80;;;4.40;;
52320;SDS011;38261;54.090;13.382;2023-05-16T07:26:06;14.03;;;3.70;;
52320;SDS011;38261;54.090;13.382;2023-05-16T07:27:28;17.63;;;4.13;;
52320;SDS011;38261;54.090;13.382;2023-05-16T07:28:52;14.90;;;4.03;;
52320;SDS011;38261;54.090;13.382;2023-05-16T07:30:14;19.33;;;4.20;;
52320;SDS011;38261;54.090;13.382;2023-05-16T07:31:37;11.13;;;3.40;;
52320;SDS011;38261;54.090;13.382;2023-05-16T07:32:59;8.60;;;3.43;;
52320;SDS011;38261;54.090;13.382;2023-05-16T07:34:21;10.10;;;3.60;;
52320;SDS011;38261;54.090;13.382;2023-05-16T07:35:43;13.47;;;3.43;;
52320;SDS011;38261;54.090;13.382;2023-05-16T07:37:06;12.87;;;4.53;;
52320;SDS011;38261;54.090;13.382;2023-05-16T07:38:33;10.67;;;3.77;;
52320;SDS011;38261;54.090;13.382;2023-05-16T07:39:55;10.40;;;4.13;;
52320;SDS011;38261;54.090;13.382;2023-05-16T07:41:17;9.60;;;3.70;;
52320;SDS011;38261;54.090;13.382;2023-05-16T07:42:39;13.90;;;4.03;;
52320;SDS011;38261;54.090;13.382;2023-05-16T07:44:02;16.73;;;4.00;;
52320;SDS011;38261;54.090;13.382;2023-05-16T07:45:24;17.03;;;4.17;;
52320;SDS011;38261;54.090;13.382;2023-05-16T07:46:47;17.63;;;4.57;;
52320;SDS011;38261;54.090;13.382;2023-05-16T07:48:09;13.37;;;3.77;;
52320;SDS011;38261;54.090;13.382;2023-05-16T07:49:32;10.60;;;4.10;;
52320;SDS011;38261;54.090;13.382;2023-05-16T07:50:54;13.50;;;3.90;;
52320;SDS011;38261;54.090;13.382;2023-05-16T07:52:16;13.33;;;4.30;;
52320;SDS011;38261;54.090;13.382;2023-05-16T07:53:38;11.27;;;2.97;;
52320;SDS011;38261;54.090;13.382;2023-05-16T07:55:02;11.10;;;3.30;;
52320;SDS011;38261;54.090;13.382;2023-05-16T07:56:24;7.93;;;3.20;;
52320;SDS011;38261;54.090;13.382;2023-05-16T07:57:47;12.43;;;3.70;;
52320;SDS011;38261;54.090;13.382;2023-05-16T07:59:10;9.23;;;3.47;;
52320;SDS011;38261;54.090;13.382;2023-05-16T08:00:32;12.30;;;4.10;;
52320;SDS011;38261;54.090;13.382;2023-05-16T08:01:54;10.80;;;3.50;;
52320;SDS011;38261;54.090;13.382;2023-05-16T08:03:17;9.50;;;2.80;;
52320;SDS011;38261;54.090;13.382;2023-05-16T08:04:39;11.90;;;2.73;;
52320;SDS011;38261;54.090;13.382;2023-05-16T08:06:02;14.63;;;3.27;;
52320;SDS011;38261;54.090;13.382;2023-05-16T08:07:24;10.57;;;2.80;;
52320;SDS011;38261;54.090;13.382;2023-05-16T08:08:47;10.93;;;2.67;;
52320;SDS011;38261;54.090;13.382;2023-05-16T08:10:09;17.27;;;3.47;;
52320;SDS011;38261;54.090;13.382;2023-05-16T08:11:34;15.60;;;2.60;;
52320;SDS011;38261;54.090;13.382;2023-05-16T08:12:56;12.53;;;3.20;;
52320;SDS011;38261;54.090;13.382;2023-05-16T08:14:19;12.00;;;2.40;;
52320;SDS011;38261;54.090;13.382;2023-05-16T08:15:41;10.57;;;2.53;;